Maple Hill, Pennsylvania
Current Conditions -  °F | °C
As of 8:15 PM on Thursday 18 Dec 2014 (Local Time) from KHZL Reporting Station
Overcast Overcast  
Wind Chill: 24°   Ceiling: 2100
Heat Index: 32°   Visibility: 10mi
Dew Point: 27°   Wind: 9mph
Humidity: 80%   Direction: 290°WNW
Pressure: 29.99"   Gusts: 18mph
Location:  40.8208°N, 76.1672°W
Report Text: KHZL 190115Z AUTO 29008G16KT 10SM OVC021 00/M03 A2999 RMK AO2
Loading
Personal Weather Stations






























Interactive Weather Map New forecast layout! Learn more

10-Day Weather Forecast

Advertisements
Track Severe Weather on mobile